KSUW/SUW METAR and TAF weather

Enter ICAO airport designator
Station Type Date Time Source
KSUW METAR 2021/05/11 00:55 UTC NOAA

KSUW 110055Z AUTO 04005KT 10SM SCT095 06/00 A3027 RMK AO2 T00551001


Station Type Date Time Source
KSUW Decoded METAR 2021/05/11 00:55 UTC NOAA

Superior, Richard I. Bong Airport, WI, United States (KSUW) 46-41-23N 092-05-41W
May 10, 2021 - 08:55 PM EDT / 2021.05.11 0055 UTC
Wind: from the NE (040 degrees) at 6 MPH (5 KT):0
Visibility: 10 mile(s):0
Sky conditions: partly cloudy
Temperature: 41.9 F (5.5 C)
Dew Point: 31.8 F (-0.1 C)
Relative Humidity: 67%
Pressure (altimeter): 30.27 in. Hg (1025 hPa)
ob: KSUW 110055Z AUTO 04005KT 10SM SCT095 06/00 A3027 RMK AO2 T00551001
cycle: 1

Station Type Date Time Source
KSUW TAF UTC NOAA

Error!

Example: see airport list